Time;durP1;ratioP1;P1;durP2;ratioP2;P2;SDS_P1;SDS_P2;PMS_P1;PMS_P2;Temp;Humidity;BMP_temperature;BMP_pressure;BME280_temperature;BME280_humidity;BME280_pressure;Samples;Min_cycle;Max_cycle;Signal;HPM_P1;HPM_P2
2022/04/19 00:00:24;;;;;;;6.82;3.22;;;7.80;99.90;;;;;;5066778;28;20036;-58
2022/04/19 00:02:49;;;;;;;7.15;3.75;;;7.80;99.90;;;;;;5070865;28;20108;-60
2022/04/19 00:05:15;;;;;;;8.05;4.30;;;7.70;99.90;;;;;;5064920;28;20957;-61
2022/04/19 00:07:42;;;;;;;8.15;3.67;;;7.70;99.90;;;;;;5066622;28;20074;-59
2022/04/19 00:10:08;;;;;;;9.68;3.60;;;7.70;99.90;;;;;;5066459;28;20017;-61
2022/04/19 00:12:34;;;;;;;7.18;3.58;;;7.70;99.90;;;;;;5065096;28;20028;-62
2022/04/19 00:15:00;;;;;;;11.70;3.80;;;7.70;99.90;;;;;;5067593;28;20024;-59
2022/04/19 00:17:25;;;;;;;7.50;3.35;;;7.80;99.90;;;;;;5065657;28;20054;-59
2022/04/19 00:19:51;;;;;;;6.95;3.55;;;7.70;99.90;;;;;;5066898;28;20122;-58
2022/04/19 00:22:17;;;;;;;5.90;3.45;;;7.70;99.90;;;;;;5058502;28;20025;-61
2022/04/19 00:24:43;;;;;;;11.25;5.18;;;7.70;99.90;;;;;;5061046;28;20375;-61
2022/04/19 00:27:08;;;;;;;10.00;3.78;;;7.70;99.90;;;;;;5063636;28;20069;-60
2022/04/19 00:29:34;;;;;;;11.55;4.43;;;7.70;99.90;;;;;;5062143;28;20029;-62
2022/04/19 00:31:59;;;;;;;8.52;3.85;;;7.60;99.90;;;;;;5068661;28;20028;-59
2022/04/19 00:34:25;;;;;;;9.52;3.70;;;7.60;99.90;;;;;;5067748;28;20086;-59
2022/04/19 00:36:51;;;;;;;7.70;4.03;;;7.60;99.90;;;;;;5060553;28;20371;-62
2022/04/19 00:39:16;;;;;;;7.75;3.47;;;7.60;99.90;;;;;;5068306;28;20047;-60
2022/04/19 00:41:42;;;;;;;8.57;3.63;;;7.50;99.90;;;;;;5068729;28;20032;-61
2022/04/19 00:44:08;;;;;;;10.13;3.55;;;7.40;99.90;;;;;;5067204;28;20027;-62
2022/04/19 00:46:33;;;;;;;8.65;3.97;;;7.30;99.90;;;;;;5059705;28;20020;-60
2022/04/19 00:48:59;;;;;;;10.70;4.57;;;7.20;99.90;;;;;;5065342;28;20067;-61
2022/04/19 00:51:26;;;;;;;8.35;3.63;;;7.30;99.90;;;;;;5061387;28;20041;-59
2022/04/19 00:53:52;;;;;;;8.32;3.72;;;7.20;99.90;;;;;;5065256;28;20080;-60
2022/04/19 00:56:17;;;;;;;9.68;3.72;;;7.30;99.90;;;;;;5060680;28;20031;-61
2022/04/19 00:58:43;;;;;;;10.38;4.40;;;7.30;99.90;;;;;;5056278;28;20402;-59
2022/04/19 01:01:09;;;;;;;8.77;4.07;;;7.20;99.90;;;;;;5051502;28;20029;-61
2022/04/19 01:03:37;;;;;;;7.53;3.65;;;7.10;99.90;;;;;;5061344;28;20111;-57
2022/04/19 01:06:04;;;;;;;9.90;4.55;;;7.00;99.90;;;;;;5059720;28;20017;-60
2022/04/19 01:08:30;;;;;;;6.68;4.10;;;7.00;99.90;;;;;;5058551;28;20052;-58
2022/04/19 01:13:17;;;;;;;7.75;3.53;;;6.90;99.90;;;;;;5069841;28;20028;-60
2022/04/19 01:13:42;;;;;;;7.60;3.70;;;6.80;99.90;;;;;;5063897;28;20047;-61
2022/04/19 01:16:08;;;;;;;7.25;3.95;;;6.80;99.90;;;;;;5067884;28;20036;-63
2022/04/19 01:18:35;;;;;;;13.38;4.38;;;6.70;99.90;;;;;;5066688;28;20032;-63
2022/04/19 01:21:01;;;;;;;5.72;3.95;;;6.70;99.90;;;;;;5060914;28;20024;-62
2022/04/19 01:23:28;;;;;;;9.45;4.15;;;6.60;99.90;;;;;;5056473;28;20049;-63
2022/04/19 01:25:54;;;;;;;6.97;3.92;;;6.50;99.90;;;;;;5060472;28;20119;-61
2022/04/19 01:28:20;;;;;;;10.20;4.10;;;6.50;99.90;;;;;;5054768;28;20550;-63
2022/04/19 01:30:49;;;;;;;7.28;3.83;;;6.50;99.90;;;;;;5051893;28;20017;-61
2022/04/19 01:33:15;;;;;;;11.68;5.22;;;6.60;99.90;;;;;;5062631;28;20075;-64
2022/04/19 01:35:40;;;;;;;7.97;4.15;;;6.60;99.90;;;;;;5063135;28;20061;-62
2022/04/19 01:38:06;;;;;;;7.97;4.20;;;6.60;99.90;;;;;;5060632;28;20036;-62
2022/04/19 01:40:32;;;;;;;9.70;4.65;;;6.60;99.90;;;;;;5062571;28;20166;-61
2022/04/19 01:42:59;;;;;;;11.25;4.30;;;6.50;99.90;;;;;;5058288;28;20029;-60
2022/04/19 01:45:28;;;;;;;8.43;4.22;;;6.40;99.90;;;;;;5069906;28;20040;-59
2022/04/19 01:47:54;;;;;;;7.82;4.22;;;6.40;99.90;;;;;;5055266;28;20608;-59
2022/04/19 01:50:21;;;;;;;9.05;5.40;;;6.30;99.90;;;;;;5054469;28;20056;-62
2022/04/19 01:52:49;;;;;;;11.32;4.60;;;6.30;99.90;;;;;;5055406;28;20052;-62
2022/04/19 01:55:16;;;;;;;9.30;4.97;;;6.30;99.90;;;;;;5064739;28;20044;-59
2022/04/19 01:57:43;;;;;;;11.23;4.65;;;6.30;99.90;;;;;;5053498;28;20028;-61
2022/04/19 02:00:09;;;;;;;11.00;5.20;;;6.30;99.90;;;;;;5065995;28;20418;-62
2022/04/19 02:02:35;;;;;;;10.57;4.38;;;6.20;99.90;;;;;;5062052;28;20023;-60
2022/04/19 02:05:01;;;;;;;8.57;4.45;;;6.10;99.90;;;;;;5063684;28;20027;-62
2022/04/19 02:07:26;;;;;;;7.35;3.88;;;6.00;99.90;;;;;;5060603;28;20048;-61
2022/04/19 02:09:52;;;;;;;8.88;3.90;;;6.10;99.90;;;;;;5064480;28;20103;-58
2022/04/19 02:12:17;;;;;;;13.68;5.13;;;6.00;99.90;;;;;;5061584;28;20032;-61
2022/04/19 02:14:43;;;;;;;7.57;4.38;;;6.00;99.90;;;;;;5056586;28;20098;-60
2022/04/19 02:17:09;;;;;;;14.88;5.15;;;6.00;99.90;;;;;;5063650;28;20013;-67
2022/04/19 02:19:38;;;;;;;8.60;4.60;;;5.90;99.90;;;;;;5059626;28;20033;-61
2022/04/19 02:22:09;;;;;;;10.57;5.15;;;6.00;99.90;;;;;;5069389;28;20028;-61
2022/04/19 02:24:35;;;;;;;10.00;4.20;;;5.90;99.90;;;;;;5058831;28;20029;-62
2022/04/19 02:27:01;;;;;;;10.90;5.07;;;5.80;99.90;;;;;;5069454;28;20096;-61
2022/04/19 02:29:27;;;;;;;10.20;4.65;;;5.80;99.90;;;;;;5066262;28;20127;-60
2022/04/19 02:31:53;;;;;;;8.75;4.80;;;5.80;99.90;;;;;;5059858;28;20057;-60
2022/04/19 02:34:19;;;;;;;7.75;4.55;;;5.70;99.90;;;;;;5061230;28;20067;-62
2022/04/19 02:36:45;;;;;;;11.48;5.22;;;5.70;99.90;;;;;;5068151;28;20060;-61
2022/04/19 02:39:11;;;;;;;8.63;4.15;;;5.70;99.90;;;;;;5064770;28;20081;-61
2022/04/19 02:41:37;;;;;;;8.10;4.53;;;5.70;99.90;;;;;;5064491;28;20028;-58
2022/04/19 02:44:07;;;;;;;6.70;4.55;;;5.70;99.90;;;;;;5062887;28;20031;-59
2022/04/19 02:46:35;;;;;;;12.30;4.75;;;5.60;99.90;;;;;;5069528;28;20036;-60
2022/04/19 02:49:04;;;;;;;11.80;4.53;;;5.60;99.90;;;;;;5058568;28;20485;-61
2022/04/19 02:51:31;;;;;;;10.45;4.68;;;5.50;99.90;;;;;;5061363;28;20085;-62
2022/04/19 02:53:57;;;;;;;7.35;4.30;;;5.50;99.90;;;;;;5059890;28;20028;-62
2022/04/19 02:56:22;;;;;;;8.07;4.40;;;5.50;99.90;;;;;;5065176;28;20044;-62
2022/04/19 02:58:48;;;;;;;8.95;4.47;;;5.50;99.90;;;;;;5054450;28;20490;-61
2022/04/19 03:01:13;;;;;;;9.13;5.53;;;5.70;99.90;;;;;;5059357;28;20035;-61
2022/04/19 03:03:39;;;;;;;7.70;4.45;;;5.70;99.90;;;;;;5054749;28;20482;-61
2022/04/19 03:06:04;;;;;;;11.10;4.30;;;5.60;99.90;;;;;;5061111;28;20516;-61
2022/04/19 03:08:33;;;;;;;7.15;4.68;;;5.60;99.90;;;;;;5052525;28;20549;-61
2022/04/19 03:10:59;;;;;;;7.78;4.60;;;5.60;99.90;;;;;;5064055;28;20044;-60
2022/04/19 03:13:27;;;;;;;11.32;5.05;;;5.60;99.90;;;;;;5052871;28;20033;-60
2022/04/19 03:15:52;;;;;;;10.40;4.65;;;5.60;99.90;;;;;;5068014;28;20029;-59
2022/04/19 03:18:18;;;;;;;10.75;5.53;;;5.50;99.90;;;;;;5054960;28;20037;-60
2022/04/19 03:20:45;;;;;;;8.27;5.07;;;5.40;99.90;;;;;;5070494;28;20086;-61
2022/04/19 03:28:40;;;;;;;8.50;4.60;;;5.30;99.90;;;;;;5067307;28;20186;-61
2022/04/19 03:31:07;;;;;;;10.32;5.15;;;5.40;99.90;;;;;;5065730;28;20119;-62
2022/04/19 03:33:33;;;;;;;9.00;5.05;;;5.50;99.90;;;;;;5062421;28;20024;-60
2022/04/19 03:35:59;;;;;;;8.10;4.72;;;5.60;99.90;;;;;;5063259;28;20036;-61
2022/04/19 03:38:24;;;;;;;7.82;4.63;;;5.60;99.90;;;;;;5069616;28;20048;-57
2022/04/19 03:40:50;;;;;;;8.70;4.43;;;5.50;99.90;;;;;;5065165;28;20486;-59
2022/04/19 03:43:16;;;;;;;8.68;4.95;;;5.40;99.90;;;;;;5057110;28;20086;-62
2022/04/19 03:45:41;;;;;;;15.80;5.85;;;5.30;99.90;;;;;;5068227;28;20559;-63
2022/04/19 03:48:07;;;;;;;8.27;4.93;;;5.20;99.90;;;;;;5066181;28;20203;-59
2022/04/19 03:50:33;;;;;;;9.07;5.13;;;5.20;99.90;;;;;;5060836;28;20029;-60
2022/04/19 03:52:59;;;;;;;10.68;5.43;;;5.10;99.90;;;;;;5062694;28;20074;-60
2022/04/19 03:55:24;;;;;;;9.50;4.60;;;5.00;99.90;;;;;;5061641;28;20475;-62
2022/04/19 03:57:50;;;;;;;9.90;4.18;;;5.00;99.90;;;;;;5062463;28;20033;-60
2022/04/19 04:00:16;;;;;;;9.27;5.35;;;5.00;99.90;;;;;;5056733;28;20941;-58
2022/04/19 04:02:41;;;;;;;7.05;4.72;;;5.00;99.90;;;;;;5060218;28;20390;-60
2022/04/19 04:05:07;;;;;;;12.68;5.40;;;5.00;99.90;;;;;;5060985;28;20024;-60
2022/04/19 04:07:38;;;;;;;9.63;4.82;;;5.00;99.90;;;;;;5069242;28;20035;-61
2022/04/19 04:10:05;;;;;;;10.93;5.43;;;5.00;99.90;;;;;;5055765;28;20029;-62
2022/04/19 04:12:31;;;;;;;13.10;5.47;;;4.90;99.90;;;;;;5072223;28;20024;-61
2022/04/19 04:14:56;;;;;;;8.63;5.20;;;4.80;99.90;;;;;;5065626;28;20035;-60
2022/04/19 04:17:22;;;;;;;8.73;5.65;;;4.80;99.90;;;;;;5064503;28;20024;-60
2022/04/19 04:19:48;;;;;;;25.67;5.47;;;4.70;99.90;;;;;;5059527;28;20447;-62
2022/04/19 04:22:13;;;;;;;20.05;5.50;;;4.70;99.90;;;;;;5062847;28;20024;-60
2022/04/19 04:24:38;;;;;;;8.10;5.43;;;4.60;99.90;;;;;;5063427;28;20477;-60
2022/04/19 04:27:04;;;;;;;16.83;6.28;;;4.60;99.90;;;;;;5063318;28;20025;-63
2022/04/19 04:29:30;;;;;;;13.20;6.13;;;4.60;99.90;;;;;;5058336;28;20044;-58
2022/04/19 04:31:56;;;;;;;10.07;5.40;;;4.50;99.90;;;;;;5070100;28;20050;-63
2022/04/19 04:34:22;;;;;;;9.95;5.57;;;4.60;99.90;;;;;;5059747;28;20065;-61
2022/04/19 04:36:48;;;;;;;18.00;5.50;;;4.70;99.90;;;;;;5065137;28;20068;-61
2022/04/19 04:39:14;;;;;;;11.35;5.78;;;4.70;99.90;;;;;;5058752;28;20037;-63
2022/04/19 04:41:40;;;;;;;9.57;5.68;;;4.80;99.90;;;;;;5068428;28;20099;-61
2022/04/19 04:44:05;;;;;;;11.57;5.90;;;4.80;99.90;;;;;;5055876;28;20064;-64
2022/04/19 04:51:59;;;;;;;8.98;5.45;;;4.80;99.90;;;;;;5064194;28;20158;-61
2022/04/19 04:54:24;;;;;;;8.75;5.40;;;4.70;99.90;;;;;;5065027;28;20025;-63
2022/04/19 04:56:50;;;;;;;10.90;5.15;;;4.70;99.90;;;;;;5064805;28;20047;-60
2022/04/19 04:59:15;;;;;;;10.02;5.60;;;4.70;99.90;;;;;;5070265;28;20062;-60
2022/04/19 05:01:41;;;;;;;12.82;6.10;;;4.70;99.90;;;;;;5059063;28;20165;-63
2022/04/19 05:04:06;;;;;;;12.13;5.68;;;4.70;99.90;;;;;;5057341;28;20052;-60
2022/04/19 05:06:32;;;;;;;13.60;5.45;;;4.80;99.90;;;;;;5057915;28;20104;-61
2022/04/19 05:08:57;;;;;;;13.82;5.40;;;4.80;99.90;;;;;;5064125;28;20490;-62
2022/04/19 05:11:23;;;;;;;12.18;6.40;;;4.90;99.90;;;;;;5064010;28;20043;-60
2022/04/19 05:13:48;;;;;;;14.15;5.20;;;4.90;99.90;;;;;;5061851;28;20090;-61
2022/04/19 05:16:14;;;;;;;14.65;6.47;;;4.90;99.90;;;;;;5060385;28;20068;-58
2022/04/19 05:18:39;;;;;;;10.18;5.63;;;4.90;99.90;;;;;;5061611;28;20169;-61
2022/04/19 05:21:07;;;;;;;10.38;5.60;;;5.00;99.90;;;;;;5059030;28;20031;-60
2022/04/19 05:23:32;;;;;;;13.95;5.60;;;5.20;99.90;;;;;;5068055;28;20020;-63
2022/04/19 05:25:58;;;;;;;8.93;5.38;;;5.20;99.90;;;;;;5062087;28;20024;-58
2022/04/19 05:28:23;;;;;;;14.05;6.32;;;5.30;99.90;;;;;;5069450;28;20115;-59
2022/04/19 05:30:49;;;;;;;14.38;6.57;;;5.40;99.90;;;;;;5057332;28;20044;-61
2022/04/19 05:33:14;;;;;;;12.40;6.20;;;5.60;99.90;;;;;;5057754;28;20032;-59
2022/04/19 05:35:40;;;;;;;10.52;6.47;;;5.80;99.90;;;;;;5058483;28;20045;-59
2022/04/19 05:38:05;;;;;;;9.52;5.40;;;5.90;99.90;;;;;;5062234;28;20033;-61
2022/04/19 05:40:31;;;;;;;9.00;5.55;;;6.10;99.90;;;;;;5067918;23;20051;-56
2022/04/19 05:42:57;;;;;;;12.00;7.07;;;6.20;99.90;;;;;;5038726;28;20029;-59
2022/04/19 05:45:22;;;;;;;10.20;6.43;;;6.30;99.90;;;;;;5044638;28;20510;-52
2022/04/19 05:47:48;;;;;;;10.52;5.40;;;6.40;99.90;;;;;;5039108;28;20025;-55
2022/04/19 05:50:13;;;;;;;16.98;5.65;;;6.50;99.90;;;;;;5042653;28;20025;-58
2022/04/19 05:52:39;;;;;;;12.57;6.72;;;6.60;99.90;;;;;;5044614;28;20047;-53
2022/04/19 05:55:05;;;;;;;13.52;6.10;;;6.70;99.90;;;;;;5048085;28;20037;-59
2022/04/19 05:57:31;;;;;;;13.45;7.07;;;6.80;99.90;;;;;;5050233;28;20056;-53
2022/04/19 05:59:56;;;;;;;12.85;6.38;;;6.80;99.90;;;;;;5049016;28;20056;-59
2022/04/19 06:05:07;;;;;;;14.80;7.28;;;7.00;99.90;;;;;;5050465;28;20032;-52
2022/04/19 06:07:41;;;;;;;12.05;6.30;;;7.10;99.90;;;;;;5050637;28;20040;-52
2022/04/19 06:10:07;;;;;;;11.32;5.90;;;7.10;99.90;;;;;;5049163;28;20031;-52
2022/04/19 06:12:33;;;;;;;13.80;6.93;;;7.20;99.90;;;;;;5048929;28;20029;-55
2022/04/19 06:14:58;;;;;;;14.30;5.88;;;7.20;99.90;;;;;;5048475;28;20025;-52
2022/04/19 06:17:27;;;;;;;7.93;5.88;;;7.30;99.90;;;;;;5046921;28;20124;-56
2022/04/19 06:19:52;;;;;;;16.38;6.15;;;7.40;99.90;;;;;;5049377;28;20114;-50
2022/04/19 06:22:18;;;;;;;12.23;6.55;;;7.50;99.90;;;;;;5050052;28;20501;-57
2022/04/19 06:24:43;;;;;;;14.55;6.53;;;7.60;99.90;;;;;;5047511;28;20138;-54
2022/04/19 06:27:09;;;;;;;12.27;5.90;;;7.70;99.90;;;;;;5043122;28;20581;-52
2022/04/19 06:29:34;;;;;;;10.80;5.55;;;7.80;99.90;;;;;;5049270;28;20027;-54
2022/04/19 06:32:00;;;;;;;16.15;6.10;;;7.90;99.90;;;;;;5040008;28;20030;-53
2022/04/19 06:34:25;;;;;;;12.07;5.13;;;7.90;99.90;;;;;;5044037;28;20479;-54
2022/04/19 06:36:51;;;;;;;9.23;5.65;;;8.00;99.90;;;;;;5042176;28;20033;-54
2022/04/19 06:39:17;;;;;;;11.90;5.82;;;8.10;99.90;;;;;;5035684;28;20033;-55
2022/04/19 06:41:43;;;;;;;9.98;4.97;;;8.20;99.90;;;;;;5039198;28;20025;-52
2022/04/19 06:44:09;;;;;;;7.63;4.93;;;8.20;99.90;;;;;;5037332;28;20017;-56
2022/04/19 06:46:36;;;;;;;9.45;4.88;;;8.30;99.90;;;;;;5038404;28;20122;-57
2022/04/19 06:49:03;;;;;;;7.40;4.35;;;8.40;99.90;;;;;;5041238;28;20021;-58
2022/04/19 06:51:30;;;;;;;14.07;5.43;;;8.50;99.90;;;;;;5039160;28;20029;-62
2022/04/19 06:53:56;;;;;;;11.30;4.25;;;8.60;99.90;;;;;;5043650;28;20380;-58
2022/04/19 06:56:22;;;;;;;11.70;4.80;;;8.60;99.90;;;;;;5036885;28;20021;-56
2022/04/19 06:58:48;;;;;;;12.60;4.90;;;8.70;99.90;;;;;;5046382;28;20086;-52
2022/04/19 07:01:14;;;;;;;10.75;3.95;;;8.80;99.90;;;;;;5044084;28;20086;-57
2022/04/19 07:03:39;;;;;;;9.85;4.30;;;8.90;99.90;;;;;;5046972;28;20033;-55
2022/04/19 07:06:08;;;;;;;5.10;3.00;;;8.90;99.90;;;;;;5049201;28;20039;-58
2022/04/19 07:08:34;;;;;;;9.63;4.03;;;9.00;99.90;;;;;;5049752;28;20082;-56
2022/04/19 07:11:03;;;;;;;12.35;4.03;;;9.00;99.90;;;;;;5048896;28;20037;-54
2022/04/19 07:13:29;;;;;;;7.15;3.95;;;9.10;99.90;;;;;;5047527;28;20059;-59
2022/04/19 07:15:55;;;;;;;9.90;4.05;;;9.20;99.90;;;;;;5045668;28;20056;-57
2022/04/19 07:18:23;;;;;;;13.57;4.07;;;9.30;99.90;;;;;;5043711;28;20087;-57
2022/04/19 07:29:02;;;;;;;11.07;4.40;;;9.70;99.90;;;;;;5049206;28;20032;-59
2022/04/19 07:31:28;;;;;;;9.35;4.90;;;10.00;99.90;;;;;;5049046;28;20037;-55
2022/04/19 07:33:54;;;;;;;11.27;5.03;;;10.00;99.90;;;;;;5049315;28;20453;-57
2022/04/19 07:36:20;;;;;;;11.80;4.50;;;10.10;99.90;;;;;;5048966;28;20036;-57
2022/04/19 07:38:46;;;;;;;6.57;3.90;;;10.30;99.90;;;;;;5048855;28;20485;-57
2022/04/19 07:41:12;;;;;;;5.32;3.75;;;10.30;99.90;;;;;;5043976;28;20074;-53
2022/04/19 07:43:38;;;;;;;9.30;3.72;;;10.40;99.90;;;;;;5047537;28;20394;-51
2022/04/19 07:46:04;;;;;;;8.68;4.25;;;10.50;99.90;;;;;;5040167;28;20061;-54
2022/04/19 07:48:30;;;;;;;6.75;3.63;;;10.60;99.90;;;;;;5046673;28;20033;-52
2022/04/19 07:50:56;;;;;;;7.63;4.03;;;10.70;99.90;;;;;;5042219;28;20115;-56
2022/04/19 07:53:23;;;;;;;6.38;4.28;;;10.80;99.90;;;;;;5046847;28;20053;-52
2022/04/19 07:55:49;;;;;;;7.20;3.92;;;10.80;99.90;;;;;;5048249;28;20017;-52
2022/04/19 07:58:14;;;;;;;6.18;3.45;;;10.90;99.90;;;;;;5043694;28;20116;-54
2022/04/19 08:00:40;;;;;;;10.35;4.53;;;11.00;99.90;;;;;;5038286;28;20555;-57
2022/04/19 08:03:06;;;;;;;9.50;4.40;;;11.10;99.90;;;;;;5037708;28;20067;-55
2022/04/19 08:05:31;;;;;;;12.95;6.30;;;11.30;99.90;;;;;;5035062;28;20029;-57
2022/04/19 08:07:57;;;;;;;7.68;4.30;;;11.40;99.90;;;;;;5042818;28;20090;-56
2022/04/19 08:10:23;;;;;;;11.80;4.45;;;11.50;99.90;;;;;;5051684;28;20044;-53
2022/04/19 08:12:49;;;;;;;11.02;5.07;;;11.60;99.90;;;;;;5047295;28;20028;-58
2022/04/19 08:15:15;;;;;;;7.32;3.78;;;11.70;99.90;;;;;;5051774;28;20640;-55
2022/04/19 08:17:40;;;;;;;15.57;4.75;;;11.80;99.90;;;;;;5047149;28;20117;-55
2022/04/19 08:20:07;;;;;;;7.95;4.25;;;11.90;99.90;;;;;;5051487;28;20094;-56
2022/04/19 08:22:33;;;;;;;10.40;4.60;;;12.00;99.90;;;;;;5040668;28;20443;-55
2022/04/19 08:25:03;;;;;;;7.28;4.60;;;12.10;99.90;;;;;;5045108;28;20096;-52
2022/04/19 08:27:28;;;;;;;9.65;4.93;;;12.10;99.90;;;;;;5041398;28;20029;-57
2022/04/19 08:29:54;;;;;;;10.80;5.00;;;12.20;99.90;;;;;;5042877;28;20565;-56
2022/04/19 08:32:19;;;;;;;14.13;4.82;;;12.40;99.90;;;;;;5038117;28;20049;-56
2022/04/19 08:34:45;;;;;;;8.85;4.50;;;12.50;99.90;;;;;;5042518;28;20021;-53
2022/04/19 08:37:11;;;;;;;10.30;5.18;;;12.60;99.90;;;;;;5044565;28;20032;-58
2022/04/19 08:39:37;;;;;;;13.20;5.63;;;12.80;99.90;;;;;;5038216;28;20078;-58
2022/04/19 08:42:06;;;;;;;8.75;5.05;;;12.90;99.90;;;;;;5038377;28;20116;-57
2022/04/19 08:44:38;;;;;;;9.95;4.82;;;12.90;99.90;;;;;;5042387;28;20029;-53
2022/04/19 08:47:06;;;;;;;10.32;4.85;;;13.10;99.90;;;;;;5046279;28;20105;-53
2022/04/19 08:49:38;;;;;;;9.68;5.00;;;13.20;99.90;;;;;;5043782;28;20032;-54
2022/04/19 08:52:03;;;;;;;7.90;4.80;;;13.30;99.90;;;;;;5049197;28;20136;-58
2022/04/19 08:57:29;;;;;;;10.48;4.65;;;13.70;99.90;;;;;;5052090;28;20040;-51
2022/04/19 08:59:55;;;;;;;14.13;4.40;;;13.80;99.90;;;;;;5040204;28;20444;-51
2022/04/19 09:02:27;;;;;;;9.98;5.50;;;14.00;99.90;;;;;;5042384;28;20036;-57
2022/04/19 09:04:54;;;;;;;14.27;6.00;;;14.20;99.90;;;;;;5041284;28;20029;-55
2022/04/19 09:07:23;;;;;;;15.13;6.22;;;14.30;99.90;;;;;;5039976;28;20029;-56
2022/04/19 09:09:59;;;;;;;11.52;5.57;;;14.50;99.90;;;;;;5041093;28;20121;-57
2022/04/19 09:12:25;;;;;;;13.77;5.25;;;14.70;99.90;;;;;;5044591;28;20044;-59
2022/04/19 09:15:00;;;;;;;10.93;6.50;;;14.80;99.90;;;;;;5040958;28;20457;-57
2022/04/19 09:17:31;;;;;;;14.45;6.72;;;14.80;99.90;;;;;;5035756;28;20065;-54
2022/04/19 09:20:11;;;;;;;13.15;5.78;;;14.90;99.90;;;;;;5038557;28;20055;-54
2022/04/19 09:22:37;;;;;;;10.77;5.22;;;14.90;99.90;;;;;;5044418;28;20080;-54
2022/04/19 09:25:26;;;;;;;12.73;6.75;;;15.20;99.90;;;;;;5039433;28;20053;-54
2022/04/19 09:27:57;;;;;;;14.95;5.75;;;15.40;99.90;;;;;;5042352;28;20017;-59
2022/04/19 09:30:30;;;;;;;10.20;5.22;;;15.50;99.90;;;;;;5040782;28;20018;-56
2022/04/19 09:33:10;;;;;;;13.77;5.70;;;15.60;99.90;;;;;;5046966;28;20048;-59
2022/04/19 09:35:47;;;;;;;12.52;6.35;;;15.90;99.90;;;;;;5049722;28;20032;-59
2022/04/19 09:38:13;;;;;;;12.07;5.70;;;16.10;99.90;;;;;;5041160;28;20037;-59
2022/04/19 09:40:41;;;;;;;13.57;5.22;;;16.30;99.90;;;;;;5042716;28;20071;-54
2022/04/19 09:43:24;;;;;;;12.65;6.68;;;16.70;99.90;;;;;;5042602;28;20032;-58
2022/04/19 09:45:58;;;;;;;11.65;6.70;;;16.80;99.90;;;;;;5045734;28;20116;-54
2022/04/19 09:48:29;;;;;;;12.25;5.90;;;17.00;99.90;;;;;;5041867;28;20408;-53
2022/04/19 09:51:09;;;;;;;13.85;7.00;;;17.00;99.90;;;;;;5050117;28;20033;-55
2022/04/19 09:53:48;;;;;;;15.63;6.20;;;17.00;99.90;;;;;;5043615;28;20104;-58
2022/04/19 09:56:16;;;;;;;11.70;6.55;;;17.10;99.90;;;;;;5049081;28;20560;-58
2022/04/19 09:58:44;;;;;;;16.83;6.20;;;17.20;99.90;;;;;;5045042;28;20086;-54
2022/04/19 10:09:24;;;;;;;12.13;6.70;;;18.10;97.80;;;;;;5049674;28;20900;-56
2022/04/19 10:11:51;;;;;;;15.02;7.63;;;18.10;96.60;;;;;;5047145;28;20056;-58
2022/04/19 10:14:18;;;;;;;13.98;6.25;;;18.10;96.30;;;;;;5048409;28;20057;-58
2022/04/19 10:16:45;;;;;;;11.35;5.68;;;18.30;98.40;;;;;;5048804;28;20078;-56
2022/04/19 10:19:12;;;;;;;15.43;6.72;;;18.60;97.60;;;;;;5051269;28;20040;-56
2022/04/19 10:21:42;;;;;;;12.25;6.80;;;18.90;97.70;;;;;;5047852;28;20517;-55
2022/04/19 10:24:10;;;;;;;10.93;6.97;;;19.00;97.40;;;;;;5050015;28;20025;-55
2022/04/19 10:26:47;;;;;;;11.75;7.05;;;19.00;97.40;;;;;;5043447;28;20062;-57
2022/04/19 10:29:16;;;;;;;11.80;5.85;;;19.30;95.70;;;;;;5043973;28;20485;-57
2022/04/19 10:32:04;;;;;;;10.27;6.63;;;19.60;94.20;;;;;;5049769;28;20037;-59
2022/04/19 10:34:34;;;;;;;15.75;7.25;;;19.60;95.20;;;;;;5045165;28;20025;-57
2022/04/19 10:37:12;;;;;;;12.45;7.22;;;19.80;94.40;;;;;;5048882;28;20044;-55
2022/04/19 10:39:51;;;;;;;12.48;6.93;;;20.00;91.60;;;;;;5048964;28;20486;-58
2022/04/19 10:42:37;;;;;;;13.73;8.02;;;19.50;94.20;;;;;;5049615;28;20043;-55
2022/04/19 10:45:12;;;;;;;12.32;7.80;;;19.50;95.10;;;;;;5049060;28;20490;-58
2022/04/19 10:47:58;;;;;;;14.93;7.57;;;20.00;93.20;;;;;;5048704;28;20021;-55
2022/04/19 10:50:33;;;;;;;15.50;7.53;;;19.90;92.10;;;;;;5044712;28;20395;-58
2022/04/19 10:53:00;;;;;;;11.75;6.82;;;20.10;92.90;;;;;;5048506;28;20051;-56
2022/04/19 10:55:30;;;;;;;12.05;6.63;;;20.10;90.00;;;;;;5047374;28;20444;-56
2022/04/19 10:58:20;;;;;;;12.32;6.03;;;20.00;90.80;;;;;;5050206;28;20028;-57
2022/04/19 11:00:48;;;;;;;11.23;6.47;;;20.20;94.30;;;;;;5049199;28;20078;-54
2022/04/19 11:03:17;;;;;;;12.50;6.28;;;20.50;89.10;;;;;;5047241;28;20109;-58
2022/04/19 11:05:51;;;;;;;11.85;6.68;;;20.60;88.10;;;;;;5049861;28;20021;-56
2022/04/19 11:08:26;;;;;;;9.05;6.15;;;20.40;85.70;;;;;;5049836;28;20056;-55
2022/04/19 11:10:58;;;;;;;11.15;6.25;;;20.30;87.30;;;;;;5049415;28;20148;-56
2022/04/19 11:13:26;;;;;;;12.82;6.63;;;20.20;85.00;;;;;;5049938;28;20391;-57
2022/04/19 11:15:58;;;;;;;12.82;6.13;;;20.20;84.00;;;;;;5049226;28;20562;-59
2022/04/19 11:18:29;;;;;;;9.50;5.50;;;20.20;83.60;;;;;;5049926;28;20029;-54
2022/04/19 11:20:57;;;;;;;9.40;5.65;;;20.40;84.80;;;;;;5048773;28;20017;-56
2022/04/19 11:23:25;;;;;;;10.50;5.80;;;20.40;83.20;;;;;;5050045;28;20226;-56
2022/04/19 11:25:53;;;;;;;11.20;5.25;;;20.70;82.30;;;;;;5049795;28;20028;-50
2022/04/19 11:28:19;;;;;;;10.18;5.05;;;20.90;81.90;;;;;;5049407;28;20087;-57
2022/04/19 11:30:57;;;;;;;10.80;4.18;;;21.20;81.50;;;;;;5049605;28;20049;-51
2022/04/19 11:33:24;;;;;;;7.55;5.22;;;21.40;84.60;;;;;;5049995;28;20029;-52
2022/04/19 11:36:02;;;;;;;9.05;4.65;;;21.80;75.90;;;;;;5049644;28;20021;-59
2022/04/19 11:38:29;;;;;;;10.05;4.47;;;22.00;75.20;;;;;;5050502;28;20059;-55
2022/04/19 11:49:05;;;;;;;6.82;4.82;;;21.30;76.50;;;;;;5110454;28;20030;-62
2022/04/19 11:51:35;;;;;;;8.27;4.93;;;21.40;82.50;;;;;;5094080;28;20036;-63
2022/04/19 11:54:00;;;;;;;5.22;3.88;;;21.60;80.90;;;;;;5072414;28;20055;-62
2022/04/19 11:56:26;;;;;;;8.43;3.28;;;21.70;75.40;;;;;;5077711;28;20128;-61
2022/04/19 11:58:52;;;;;;;5.13;3.65;;;22.20;75.90;;;;;;5092549;28;20279;-63
2022/04/19 12:01:19;;;;;;;5.63;3.55;;;22.50;70.40;;;;;;5089886;28;20017;-63
2022/04/19 12:03:45;;;;;;;4.93;3.45;;;22.60;68.40;;;;;;5071832;28;20078;-62
2022/04/19 12:06:11;;;;;;;7.70;4.00;;;22.40;71.90;;;;;;5077245;28;20036;-62
2022/04/19 12:08:51;;;;;;;5.65;3.47;;;22.50;65.30;;;;;;5089481;28;20027;-61
2022/04/19 12:11:25;;;;;;;4.97;3.33;;;22.40;70.90;;;;;;5078968;28;20413;-61
2022/04/19 12:13:51;;;;;;;;;;;22.50;67.90;;;;;;5073816;28;20024;-62
2022/04/19 12:16:34;;;;;;;5.00;3.33;;;22.70;69.50;;;;;;5073229;28;20430;-61
2022/04/19 12:19:02;;;;;;;3.88;2.92;;;22.80;70.50;;;;;;5071698;28;20027;-63
2022/04/19 12:21:39;;;;;;;4.45;3.25;;;22.80;70.20;;;;;;5085603;28;20044;-62
2022/04/19 12:24:20;;;;;;;9.82;3.30;;;23.00;74.00;;;;;;5067083;28;20051;-62
2022/04/19 12:27:06;;;;;;;4.78;3.42;;;22.90;71.10;;;;;;5073875;28;20136;-64
2022/04/19 12:29:32;;;;;;;6.50;3.28;;;23.00;67.00;;;;;;5070700;28;20124;-63
2022/04/19 12:32:00;;;;;;;6.63;3.67;;;23.30;64.50;;;;;;5070804;28;20025;-61
2022/04/19 12:34:34;;;;;;;5.95;3.40;;;23.20;71.80;;;;;;5070904;28;20036;-61
2022/04/19 12:37:12;;;;;;;4.05;3.65;;;23.50;67.60;;;;;;5068853;28;20029;-64
2022/04/19 12:39:39;;;;;;;4.80;3.80;;;23.70;61.40;;;;;;5069262;28;20522;-62
2022/04/19 12:42:09;;;;;;;5.13;3.35;;;23.30;67.50;;;;;;5069709;28;20604;-62
2022/04/19 12:44:36;;;;;;;6.45;3.92;;;23.60;61.80;;;;;;5084493;28;20064;-62
2022/04/19 12:47:10;;;;;;;4.97;3.35;;;23.60;60.20;;;;;;5067468;28;20025;-61
2022/04/19 12:49:42;;;;;;;6.57;3.28;;;23.20;68.80;;;;;;5074643;28;20029;-63
2022/04/19 12:52:08;;;;;;;5.35;3.10;;;23.60;66.20;;;;;;5073326;28;20021;-62
2022/04/19 12:54:46;;;;;;;4.75;3.70;;;23.90;59.50;;;;;;5081185;28;20039;-61
2022/04/19 12:57:14;;;;;;;4.07;3.47;;;23.80;66.30;;;;;;5065824;28;20486;-60
2022/04/19 12:59:43;;;;;;;4.82;3.47;;;24.10;66.10;;;;;;5068884;28;20028;-60
2022/04/19 13:02:08;;;;;;;9.85;3.83;;;24.40;60.70;;;;;;5076143;28;20390;-59
2022/04/19 13:04:34;;;;;;;8.02;3.65;;;24.50;58.60;;;;;;5085640;28;20099;-60
2022/04/19 13:12:28;;;;;;;5.15;3.67;;;24.30;56.90;;;;;;5067118;28;20051;-61
2022/04/19 13:14:58;;;;;;;6.45;3.30;;;23.90;56.50;;;;;;5070525;28;20028;-57
2022/04/19 13:17:25;;;;;;;5.05;3.53;;;23.80;59.10;;;;;;5074922;28;20085;-60
2022/04/19 13:19:51;;;;;;;5.90;3.30;;;23.90;63.00;;;;;;5072125;28;20025;-65
2022/04/19 13:22:17;;;;;;;4.63;3.30;;;24.00;62.30;;;;;;5070639;28;20032;-61
2022/04/19 13:24:43;;;;;;;5.00;2.92;;;24.30;61.90;;;;;;5072299;28;20668;-60
2022/04/19 13:27:11;;;;;;;5.00;3.22;;;24.00;64.60;;;;;;5072462;28;20036;-60
2022/04/19 13:29:42;;;;;;;5.68;2.50;;;24.50;58.60;;;;;;5071283;28;20390;-62
2022/04/19 13:32:08;;;;;;;4.88;3.58;;;24.40;61.80;;;;;;5078803;28;20027;-59
2022/04/19 13:34:34;;;;;;;3.20;2.90;;;24.70;58.10;;;;;;5088751;28;20093;-60
2022/04/19 13:37:00;;;;;;;4.82;2.80;;;24.40;60.70;;;;;;5070977;28;20035;-57